createdAt,value
2019-05-02T00:00:18.872Z,96871.16
2019-05-02T00:01:37.809Z,96861.66
2019-05-02T00:02:30.141Z,96871.34
2019-05-02T00:03:20.551Z,96868.45
2019-05-02T00:04:18.164Z,96862.20
2019-05-02T00:05:02.419Z,96861.23
2019-05-02T00:05:52.961Z,96866.25
2019-05-02T00:06:44.214Z,96863.27
2019-05-02T00:07:34.653Z,96861.20
2019-05-02T00:08:29.213Z,96859.35
2019-05-02T00:09:16.385Z,96854.23
2019-05-02T00:10:07.430Z,96854.88
2019-05-02T00:10:58.036Z,96853.85
2019-05-02T00:11:58.661Z,96860.77
2019-05-02T00:12:39.991Z,96857.58
2019-05-02T00:13:30.107Z,96865.30
2019-05-02T00:14:20.988Z,96861.86
2019-05-02T00:15:11.794Z,96866.52
2019-05-02T00:16:02.154Z,96860.81
2019-05-02T00:16:53.336Z,96858.74
2019-05-02T00:17:43.838Z,96859.63
2019-05-02T00:18:37.324Z,96861.90
2019-05-02T00:19:25.603Z,96855.94
2019-05-02T00:20:16.201Z,96856.82
2019-05-02T00:21:06.568Z,96858.86
2019-05-02T00:21:58.132Z,96859.52
2019-05-02T00:22:52.245Z,96862.02
2019-05-02T00:23:40.021Z,96856.86
2019-05-02T00:24:33.990Z,96854.79
2019-05-02T00:25:20.122Z,96857.62
2019-05-02T00:26:11.048Z,96851.67
2019-05-02T00:27:03.149Z,96858.82
2019-05-02T00:27:51.794Z,96857.80
2019-05-02T00:28:47.608Z,96853.77
2019-05-02T00:29:33.742Z,96856.61
2019-05-02T00:30:23.912Z,96847.92
2019-05-02T00:31:13.984Z,96854.30
2019-05-02T00:32:04.013Z,96852.44
2019-05-02T00:32:58.309Z,96849.46
2019-05-02T00:33:44.839Z,96854.22
2019-05-02T00:34:35.244Z,96846.90
2019-05-02T00:35:25.442Z,96852.72
2019-05-02T00:36:16.171Z,96849.48
2019-05-02T00:37:06.742Z,96849.59
2019-05-02T00:38:02.518Z,96851.83
2019-05-02T00:38:49.655Z,96848.05
2019-05-02T00:39:39.972Z,96847.59
2019-05-02T00:40:30.492Z,96849.02
2019-05-02T00:41:20.543Z,96849.12
2019-05-02T00:42:12.703Z,96837.70
2019-05-02T00:43:01.367Z,96845.44
2019-05-02T00:43:51.472Z,96844.39
2019-05-02T00:44:47.008Z,96835.48
2019-05-02T00:45:33.017Z,96844.00
2019-05-02T00:46:23.834Z,96835.34
2019-05-02T00:47:42.400Z,96837.02
2019-05-02T00:48:35.994Z,96844.16
2019-05-02T00:49:30.824Z,96838.80
2019-05-02T00:50:17.860Z,96845.13
2019-05-02T00:51:08.308Z,96846.59
2019-05-02T00:52:01.386Z,96842.81
2019-05-02T00:52:50.056Z,96842.56
2019-05-02T00:53:44.512Z,96841.52
2019-05-02T00:54:32.145Z,96843.75
2019-05-02T00:55:23.036Z,96837.27
2019-05-02T00:56:13.162Z,96836.22
2019-05-02T00:57:03.382Z,96842.23
2019-05-02T00:57:55.667Z,96843.36
2019-05-02T00:58:44.341Z,96828.34
2019-05-02T00:59:37.711Z,96829.00
2019-05-02T01:00:25.682Z,96835.27
2019-05-02T01:01:38.850Z,96829.87
2019-05-02T01:02:40.665Z,96836.48
2019-05-02T01:03:31.826Z,96833.50
2019-05-02T01:04:27.659Z,96829.72
2019-05-02T01:05:13.559Z,96827.09
2019-05-02T01:06:03.752Z,96828.45
2019-05-02T01:06:55.167Z,96827.64
2019-05-02T01:07:45.512Z,96825.72
2019-05-02T01:08:36.842Z,96825.47
2019-05-02T01:09:25.754Z,96829.32
2019-05-02T01:10:17.248Z,96823.61
2019-05-02T01:11:07.474Z,96821.45
2019-05-02T01:11:58.258Z,96824.52
2019-05-02T01:12:49.018Z,96819.61
2019-05-02T01:13:39.282Z,96819.37
2019-05-02T01:14:31.748Z,96822.09
2019-05-02T01:15:20.745Z,96820.48
2019-05-02T01:16:15.125Z,96822.20
2019-05-02T01:17:02.335Z,96815.69
2019-05-02T01:17:53.536Z,96812.15
2019-05-02T01:18:44.039Z,96820.09
2019-05-02T01:19:35.436Z,96812.45
2019-05-02T01:20:27.527Z,96819.62
2019-05-02T01:21:16.139Z,96811.19
2019-05-02T01:22:10.532Z,96817.20
2019-05-02T01:22:56.964Z,96816.41
2019-05-02T01:23:46.913Z,96815.34
2019-05-02T01:24:39.795Z,96811.59
2019-05-02T01:25:28.118Z,96809.98
2019-05-02T01:26:18.400Z,96804.03
2019-05-02T01:27:17.862Z,96814.95
2019-05-02T01:28:17.589Z,96808.47
2019-05-02T01:29:15.018Z,96808.53
2019-05-02T01:30:42.309Z,96812.63
2019-05-02T01:31:49.984Z,96812.72
2019-05-02T01:33:01.382Z,96800.05
2019-05-02T01:34:04.777Z,96797.38
2019-05-02T01:34:59.754Z,96796.66
2019-05-02T01:36:06.265Z,96794.34
2019-05-02T01:37:01.658Z,96794.98
2019-05-02T01:38:17.153Z,96794.80
2019-05-02T01:39:08.760Z,96793.53
2019-05-02T01:40:00.462Z,96798.83
2019-05-02T01:40:53.091Z,96793.99
2019-05-02T01:41:42.273Z,96787.52
2019-05-02T01:42:39.679Z,96793.03
2019-05-02T01:43:27.180Z,96791.45
2019-05-02T01:44:17.551Z,96789.59
2019-05-02T01:45:11.218Z,96787.17
2019-05-02T01:45:58.660Z,96789.90
2019-05-02T01:46:53.977Z,96788.31
2019-05-02T01:47:41.164Z,96788.06
2019-05-02T01:48:31.072Z,96788.94
2019-05-02T01:49:22.994Z,96788.38
2019-05-02T01:50:11.821Z,96779.70
2019-05-02T01:51:04.271Z,96791.20
2019-05-02T01:51:52.788Z,96780.59
2019-05-02T01:52:43.026Z,96783.63
2019-05-02T01:53:34.190Z,96784.19
2019-05-02T01:54:23.530Z,96777.72
2019-05-02T01:55:17.110Z,96785.09
2019-05-02T01:56:04.971Z,96781.86
2019-05-02T01:56:56.354Z,96782.20
2019-05-02T01:57:47.069Z,96781.61
2019-05-02T01:58:37.595Z,96778.67
2019-05-02T01:59:33.482Z,96783.63
2019-05-02T02:00:18.953Z,96784.73
2019-05-02T02:01:09.589Z,96772.81
2019-05-02T02:02:00.390Z,96778.26
2019-05-02T02:02:50.972Z,96778.57
2019-05-02T02:03:45.718Z,96785.38
2019-05-02T02:04:32.128Z,96774.79
2019-05-02T02:05:22.942Z,96773.20
2019-05-02T02:06:13.667Z,96774.88
2019-05-02T02:07:04.075Z,96774.88
2019-05-02T02:07:55.544Z,96779.52
2019-05-02T02:08:44.282Z,96774.63
2019-05-02T02:09:38.858Z,96780.08
2019-05-02T02:10:25.657Z,96775.73
2019-05-02T02:11:16.173Z,96772.20
2019-05-02T02:12:09.905Z,96775.52
2019-05-02T02:13:04.932Z,96771.19
2019-05-02T02:13:48.372Z,96770.07
2019-05-02T02:14:39.354Z,96769.27
2019-05-02T02:15:30.295Z,96777.19
2019-05-02T02:16:19.633Z,96770.37
2019-05-02T02:17:15.476Z,96765.48
2019-05-02T02:18:02.481Z,96764.13
2019-05-02T02:19:03.942Z,96761.40
2019-05-02T02:19:53.421Z,96769.57
2019-05-02T02:21:09.522Z,96768.77
2019-05-02T02:22:10.674Z,96763.88
2019-05-02T02:23:16.626Z,96774.77
2019-05-02T02:24:26.550Z,96767.71
2019-05-02T02:25:36.324Z,96764.77
2019-05-02T02:26:23.044Z,96765.08
2019-05-02T02:27:13.514Z,96762.66
2019-05-02T02:28:04.425Z,96768.66
2019-05-02T02:28:54.916Z,96760.27
2019-05-02T02:29:46.181Z,96761.94
2019-05-02T02:30:36.754Z,96763.00
2019-05-02T02:31:27.658Z,96761.13
2019-05-02T02:32:26.611Z,96766.58
2019-05-02T02:33:09.849Z,96764.41
2019-05-02T02:33:59.495Z,96762.03
2019-05-02T02:34:50.886Z,96759.05
2019-05-02T02:35:49.633Z,96766.42
2019-05-02T02:36:34.438Z,96768.09
2019-05-02T02:37:21.434Z,96759.66
2019-05-02T02:38:12.587Z,96762.17
2019-05-02T02:39:06.935Z,96756.72
2019-05-02T02:39:54.140Z,96764.39
2019-05-02T02:40:44.123Z,96757.59
2019-05-02T02:41:34.856Z,96755.97
2019-05-02T02:42:31.751Z,96760.62
2019-05-02T02:43:33.621Z,96762.56
2019-05-02T02:44:33.554Z,96757.42
2019-05-02T02:45:29.089Z,96757.17
2019-05-02T02:46:30.621Z,96758.84
2019-05-02T02:47:20.773Z,96757.26
2019-05-02T02:48:09.224Z,96761.40
2019-05-02T02:48:59.135Z,96755.70
2019-05-02T02:49:49.393Z,96754.13
2019-05-02T02:50:42.992Z,96760.13
2019-05-02T02:51:31.475Z,96757.70
2019-05-02T02:52:21.759Z,96752.26
2019-05-02T02:53:18.213Z,96761.80
2019-05-02T02:54:05.487Z,96749.06
2019-05-02T02:54:54.257Z,96755.07
2019-05-02T02:55:45.410Z,96758.09
2019-05-02T02:56:40.510Z,96755.93
2019-05-02T02:57:28.515Z,96760.57
2019-05-02T02:58:18.274Z,96756.48
2019-05-02T02:59:08.849Z,96754.66
2019-05-02T03:00:06.538Z,96754.66
2019-05-02T03:00:49.390Z,96748.16
2019-05-02T03:01:39.648Z,96760.96
2019-05-02T03:02:29.875Z,96760.71
2019-05-02T03:03:20.674Z,96752.46
2019-05-02T03:04:12.314Z,96739.87
2019-05-02T03:05:00.674Z,96751.66
2019-05-02T03:05:58.319Z,96756.04
2019-05-02T03:06:47.219Z,96750.34
2019-05-02T03:07:35.457Z,96749.32
2019-05-02T03:08:26.222Z,96751.55
2019-05-02T03:09:20.201Z,96754.82
2019-05-02T03:10:08.417Z,96752.98
2019-05-02T03:10:57.277Z,96748.09
2019-05-02T03:12:05.906Z,96747.04
2019-05-02T03:13:15.054Z,96759.03
2019-05-02T03:14:13.008Z,96751.76
2019-05-02T03:15:04.301Z,96755.34
2019-05-02T03:16:00.472Z,96753.73
2019-05-02T03:16:47.038Z,96744.53
2019-05-02T03:17:36.257Z,96750.53
2019-05-02T03:18:27.302Z,96749.48
2019-05-02T03:19:21.110Z,96751.95
2019-05-02T03:20:08.286Z,96740.25
2019-05-02T03:20:58.623Z,96749.00
2019-05-02T03:22:01.199Z,96753.64
2019-05-02T03:22:47.714Z,96749.31
2019-05-02T03:23:38.469Z,96753.95
2019-05-02T03:24:28.947Z,96749.36
2019-05-02T03:25:25.009Z,96743.36
2019-05-02T03:26:14.789Z,96752.67
2019-05-02T03:26:59.062Z,96754.33
2019-05-02T03:27:49.894Z,96747.83
2019-05-02T03:28:40.862Z,96750.55
2019-05-02T03:29:41.122Z,96746.22
2019-05-02T03:30:32.985Z,96756.33
2019-05-02T03:31:24.089Z,96751.19
2019-05-02T03:32:14.981Z,96741.66
2019-05-02T03:33:05.834Z,96752.30
2019-05-02T03:33:56.210Z,96739.80
2019-05-02T03:34:47.177Z,96753.19
2019-05-02T03:35:40.135Z,96751.02
2019-05-02T03:36:28.722Z,96743.95
2019-05-02T03:37:10.522Z,96748.05
2019-05-02T03:37:55.917Z,96751.06
2019-05-02T03:38:46.091Z,96746.73
2019-05-02T03:39:36.211Z,96743.79
2019-05-02T03:40:32.329Z,96747.87
2019-05-02T03:41:20.540Z,96749.53
2019-05-02T03:42:07.376Z,96739.76
2019-05-02T03:42:58.198Z,96751.20
2019-05-02T03:43:48.879Z,96747.11
2019-05-02T03:44:39.479Z,96746.30
2019-05-02T03:45:32.362Z,96746.09
2019-05-02T03:46:22.516Z,96752.55
2019-05-02T03:47:10.624Z,96745.53
2019-05-02T03:48:01.300Z,96749.36
2019-05-02T03:49:05.525Z,96754.25
2019-05-02T03:49:48.563Z,96752.89
2019-05-02T03:50:35.454Z,96750.72
2019-05-02T03:51:25.596Z,96752.38
2019-05-02T03:52:16.288Z,96752.13
2019-05-02T03:53:06.194Z,96749.41
2019-05-02T03:54:06.104Z,96751.33
2019-05-02T03:54:49.955Z,96750.55
2019-05-02T03:55:37.659Z,96758.12
2019-05-02T03:56:27.786Z,96757.66
2019-05-02T03:57:18.002Z,96747.32
2019-05-02T03:58:14.073Z,96755.48
2019-05-02T03:58:59.544Z,96749.23
2019-05-02T03:59:49.658Z,96758.51
2019-05-02T04:00:40.477Z,96754.42
2019-05-02T04:01:34.656Z,96756.92
2019-05-02T04:02:21.812Z,96748.51
2019-05-02T04:03:11.112Z,96753.95
2019-05-02T04:04:03.004Z,96759.39
2019-05-02T04:05:00.333Z,96753.95
2019-05-02T04:05:44.081Z,96748.51
2019-05-02T04:06:34.686Z,96753.95
2019-05-02T04:07:25.432Z,96753.95
2019-05-02T04:08:20.961Z,96752.34
2019-05-02T04:09:08.595Z,96760.75
2019-05-02T04:09:59.236Z,96757.23
2019-05-02T04:11:12.221Z,96755.06
2019-05-02T04:12:02.788Z,96750.72
2019-05-02T04:12:58.419Z,96753.77
2019-05-02T04:13:42.945Z,96756.80
2019-05-02T04:14:37.745Z,96760.88
2019-05-02T04:15:28.781Z,96752.47
2019-05-02T04:16:17.591Z,96748.94
2019-05-02T04:17:05.741Z,96756.29
2019-05-02T04:17:56.338Z,96754.94
2019-05-02T04:18:54.502Z,96754.13
2019-05-02T04:19:36.998Z,96750.85
2019-05-02T04:20:27.890Z,96751.66
2019-05-02T04:21:24.389Z,96753.02
2019-05-02T04:22:11.763Z,96756.29
2019-05-02T04:22:59.025Z,96752.21
2019-05-02T04:23:49.228Z,96745.41
2019-05-02T04:24:39.701Z,96745.41
2019-05-02T04:25:34.017Z,96747.91
2019-05-02T04:26:21.167Z,96758.53
2019-05-02T04:27:12.311Z,96750.12
2019-05-02T04:28:05.987Z,96751.48
2019-05-02T04:28:54.076Z,96752.34
2019-05-02T04:29:44.378Z,96755.06
2019-05-02T04:30:36.093Z,96753.70
2019-05-02T04:31:31.540Z,96757.55
2019-05-02T04:32:18.082Z,96750.50
2019-05-02T04:33:08.344Z,96759.47
2019-05-02T04:34:00.135Z,96763.55
2019-05-02T04:34:55.804Z,96754.58
2019-05-02T04:35:40.908Z,96762.19
2019-05-02T04:36:30.980Z,96761.38
2019-05-02T04:37:21.083Z,96762.19
2019-05-02T04:38:20.064Z,96764.36
2019-05-02T04:39:05.974Z,96767.08
2019-05-02T04:39:57.814Z,96765.71
2019-05-02T04:40:46.482Z,96764.58
2019-05-02T04:41:34.652Z,96767.30
2019-05-02T04:42:25.679Z,96770.83
2019-05-02T04:43:18.409Z,96761.00
2019-05-02T04:44:09.066Z,96769.16
2019-05-02T04:45:14.201Z,96771.88
2019-05-02T04:45:56.239Z,96771.08
2019-05-02T04:46:39.103Z,96773.24
2019-05-02T04:47:29.396Z,96768.31
2019-05-02T04:48:19.778Z,96778.86
2019-05-02T04:49:10.433Z,96776.14
2019-05-02T04:50:10.213Z,96770.95
2019-05-02T04:51:02.068Z,96773.38
2019-05-02T04:51:50.692Z,96780.91
2019-05-02T04:52:40.793Z,96776.83
2019-05-02T04:53:26.023Z,96775.16
2019-05-02T04:54:23.206Z,96778.36
2019-05-02T04:55:14.652Z,96785.66
2019-05-02T04:56:01.758Z,96781.03
2019-05-02T04:56:53.131Z,96782.31
2019-05-02T04:57:46.832Z,96777.94
2019-05-02T04:58:33.465Z,96777.05
2019-05-02T04:59:22.746Z,96775.94
2019-05-02T05:00:11.810Z,96779.97
2019-05-02T05:01:01.749Z,96776.92
2019-05-02T05:01:57.094Z,96781.25
2019-05-02T05:02:43.472Z,96780.39
2019-05-02T05:03:34.370Z,96786.31
2019-05-02T05:04:24.739Z,96778.40
2019-05-02T05:05:17.343Z,96782.95
2019-05-02T05:06:10.797Z,96780.44
2019-05-02T05:07:00.885Z,96780.11
2019-05-02T05:07:49.339Z,96774.06
2019-05-02T05:08:38.817Z,96777.81
2019-05-02T05:09:28.067Z,96775.03
2019-05-02T05:10:18.668Z,96779.37
2019-05-02T05:11:08.642Z,96781.70
2019-05-02T05:12:02.433Z,96775.63
2019-05-02T05:12:49.730Z,96776.13
2019-05-02T05:13:40.159Z,96774.69
2019-05-02T05:14:39.441Z,96772.77
2019-05-02T05:15:35.484Z,96773.44
2019-05-02T05:16:15.521Z,96780.41
2019-05-02T05:17:02.680Z,96774.33
2019-05-02T05:17:54.611Z,96781.33
2019-05-02T05:18:49.259Z,96776.61
2019-05-02T05:19:37.193Z,96775.97
2019-05-02T05:20:25.275Z,96779.45
2019-05-02T05:21:17.957Z,96772.80
2019-05-02T05:22:11.519Z,96777.35
2019-05-02T05:22:58.174Z,96774.23
2019-05-02T05:24:13.513Z,96773.62
2019-05-02T05:25:07.573Z,96773.79
2019-05-02T05:26:03.379Z,96775.81
2019-05-02T05:26:50.144Z,96777.89
2019-05-02T05:27:52.575Z,96763.96
2019-05-02T05:28:44.253Z,96769.08
2019-05-02T05:29:30.229Z,96763.73
2019-05-02T05:30:21.224Z,96768.78
2019-05-02T05:31:16.464Z,96771.66
2019-05-02T05:32:07.393Z,96776.50
2019-05-02T05:32:52.595Z,96771.20
2019-05-02T05:33:43.317Z,96771.36
2019-05-02T05:34:34.152Z,96774.25
2019-05-02T05:35:24.512Z,96767.06
2019-05-02T05:36:19.720Z,96766.97
2019-05-02T05:37:09.525Z,96760.31
2019-05-02T05:37:57.856Z,96767.88
2019-05-02T05:38:48.748Z,96763.94
2019-05-02T05:39:42.959Z,96770.35
2019-05-02T05:40:32.287Z,96766.41
2019-05-02T05:41:23.160Z,96768.18
2019-05-02T05:42:10.928Z,96764.83
2019-05-02T05:43:02.673Z,96764.98
2019-05-02T05:43:53.631Z,96762.41
2019-05-02T05:44:42.086Z,96763.92
2019-05-02T05:45:33.082Z,96762.70
2019-05-02T05:46:23.391Z,96757.99
2019-05-02T05:47:17.610Z,96750.20
2019-05-02T05:48:04.796Z,96756.92
2019-05-02T05:48:57.803Z,96752.42
2019-05-02T05:49:47.763Z,96752.02
2019-05-02T05:50:40.149Z,96756.28
2019-05-02T05:51:27.938Z,96754.26
2019-05-02T05:52:18.284Z,96756.58
2019-05-02T05:53:12.450Z,96753.78
2019-05-02T05:54:02.817Z,96750.63
2019-05-02T05:54:50.423Z,96747.73
2019-05-02T05:55:41.320Z,96756.07
2019-05-02T05:56:32.456Z,96749.98
2019-05-02T05:57:23.793Z,96748.20
2019-05-02T05:58:15.823Z,96749.14
2019-05-02T05:59:05.293Z,96747.15
2019-05-02T05:59:55.456Z,96754.61
2019-05-02T06:00:53.674Z,96750.89
2019-05-02T06:01:38.603Z,96748.06
2019-05-02T06:02:28.840Z,96743.78
2019-05-02T06:03:19.456Z,96744.17
2019-05-02T06:04:09.302Z,96750.33
2019-05-02T06:05:03.571Z,96743.88
2019-05-02T06:05:50.736Z,96755.75
2019-05-02T06:06:41.616Z,96749.30
2019-05-02T06:07:33.627Z,96745.02
2019-05-02T06:08:23.181Z,96741.66
2019-05-02T06:09:13.941Z,96750.23
2019-05-02T06:10:08.007Z,96751.17
2019-05-02T06:10:55.792Z,96746.64
2019-05-02T06:11:50.750Z,96745.97
2019-05-02T06:12:38.426Z,96747.95
2019-05-02T06:13:28.614Z,96742.05
2019-05-02T06:14:19.966Z,96741.87
2019-05-02T06:15:10.359Z,96750.69
2019-05-02T06:16:02.868Z,96741.25
2019-05-02T06:16:51.796Z,96746.28
2019-05-02T06:17:40.939Z,96744.72
2019-05-02T06:18:36.256Z,96741.79
2019-05-02T06:19:23.180Z,96746.83
2019-05-02T06:20:13.951Z,96738.42
2019-05-02T06:21:08.858Z,96746.44
2019-05-02T06:21:54.431Z,96742.13
2019-05-02T06:22:45.717Z,96740.56
2019-05-02T06:23:41.392Z,96739.32
2019-05-02T06:24:28.170Z,96739.69
2019-05-02T06:25:32.864Z,96736.51
2019-05-02T06:26:13.437Z,96738.48
2019-05-02T06:27:00.639Z,96744.88
2019-05-02T06:27:50.977Z,96742.74
2019-05-02T06:28:43.208Z,96735.45
2019-05-02T06:29:32.215Z,96729.77
2019-05-02T06:30:22.379Z,96735.36
2019-05-02T06:31:15.460Z,96729.44
2019-05-02T06:32:05.053Z,96734.73
2019-05-02T06:32:56.664Z,96730.42
2019-05-02T06:33:47.037Z,96733.28
2019-05-02T06:34:46.021Z,96733.06
2019-05-02T06:35:30.298Z,96738.90
2019-05-02T06:36:20.845Z,96737.88
2019-05-02T06:37:13.581Z,96731.95
2019-05-02T06:38:01.056Z,96728.99
2019-05-02T06:38:56.158Z,96725.00
2019-05-02T06:39:42.250Z,96719.87
2019-05-02T06:40:32.956Z,96722.39
2019-05-02T06:41:23.750Z,96722.73
2019-05-02T06:42:14.618Z,96721.70
2019-05-02T06:43:09.579Z,96724.80
2019-05-02T06:43:55.940Z,96727.88
2019-05-02T06:44:47.079Z,96721.38
2019-05-02T06:45:39.682Z,96725.73
2019-05-02T06:46:29.819Z,96725.59
2019-05-02T06:47:20.352Z,96726.74
2019-05-02T06:48:17.081Z,96720.00
2019-05-02T06:49:01.356Z,96724.69
2019-05-02T06:49:56.140Z,96723.98
2019-05-02T06:50:41.701Z,96718.84
2019-05-02T06:51:33.389Z,96713.12
2019-05-02T06:52:27.220Z,96721.92
2019-05-02T06:53:14.099Z,96717.91
2019-05-02T06:54:05.915Z,96726.70
2019-05-02T06:54:57.979Z,96713.32
2019-05-02T06:55:48.539Z,96728.52
2019-05-02T06:56:43.066Z,96721.19
2019-05-02T06:57:30.530Z,96716.26
2019-05-02T06:58:20.985Z,96716.59
2019-05-02T06:59:13.116Z,96720.23
2019-05-02T07:00:03.370Z,96721.59
2019-05-02T07:00:58.079Z,96720.32
2019-05-02T07:01:45.065Z,96717.37
2019-05-02T07:02:35.379Z,96723.41
2019-05-02T07:03:27.709Z,96712.52
2019-05-02T07:04:23.104Z,96719.95
2019-05-02T07:05:08.741Z,96719.70
2019-05-02T07:06:02.781Z,96713.96
2019-05-02T07:06:58.773Z,96709.36
2019-05-02T07:07:42.327Z,96704.98
2019-05-02T07:08:32.531Z,96711.00
2019-05-02T07:09:23.157Z,96714.30
2019-05-02T07:10:14.111Z,96712.67
2019-05-02T07:11:04.767Z,96704.75
2019-05-02T07:11:57.355Z,96712.16
2019-05-02T07:12:46.140Z,96711.11
2019-05-02T07:13:41.262Z,96698.25
2019-05-02T07:14:26.788Z,96711.16
2019-05-02T07:15:38.555Z,96706.20
2019-05-02T07:16:49.704Z,96712.82
2019-05-02T07:17:39.763Z,96705.31
2019-05-02T07:18:32.267Z,96701.37
2019-05-02T07:19:34.579Z,96695.39
2019-05-02T07:20:24.497Z,96696.13
2019-05-02T07:21:17.326Z,96702.16
2019-05-02T07:22:05.648Z,96693.98
2019-05-02T07:22:56.353Z,96693.94
2019-05-02T07:23:48.547Z,96695.05
2019-05-02T07:24:37.723Z,96702.80
2019-05-02T07:25:28.193Z,96691.33
2019-05-02T07:26:21.015Z,96693.45
2019-05-02T07:27:09.914Z,96693.75
2019-05-02T07:28:04.548Z,96689.92
2019-05-02T07:28:51.060Z,96694.35
2019-05-02T07:29:41.479Z,96693.84
2019-05-02T07:30:35.048Z,96689.86
2019-05-02T07:31:22.062Z,96697.84
2019-05-02T07:32:12.356Z,96689.52
2019-05-02T07:33:02.579Z,96691.20
2019-05-02T07:33:53.042Z,96696.42
2019-05-02T07:34:44.243Z,96697.13
2019-05-02T07:35:34.900Z,96695.70
2019-05-02T07:36:25.030Z,96692.27
2019-05-02T07:37:15.236Z,96690.25
2019-05-02T07:38:05.353Z,96692.55
2019-05-02T07:38:57.514Z,96699.16
2019-05-02T07:39:46.874Z,96696.91
2019-05-02T07:40:37.639Z,96688.00
2019-05-02T07:41:28.965Z,96691.83
2019-05-02T07:42:18.678Z,96695.64
2019-05-02T07:43:13.506Z,96700.28
2019-05-02T07:43:59.510Z,96688.41
2019-05-02T07:44:50.019Z,96691.09
2019-05-02T07:45:45.235Z,96692.94
2019-05-02T07:46:31.046Z,96690.46
2019-05-02T07:47:21.707Z,96691.53
2019-05-02T07:48:17.169Z,96686.88
2019-05-02T07:49:02.774Z,96694.84
2019-05-02T07:49:54.059Z,96690.41
2019-05-02T07:50:46.385Z,96688.50
2019-05-02T07:51:35.118Z,96690.38
2019-05-02T07:52:28.838Z,96686.50
2019-05-02T07:53:15.713Z,96685.97
2019-05-02T07:54:07.213Z,96686.63
2019-05-02T07:55:01.156Z,96682.55
2019-05-02T07:55:49.261Z,96684.77
2019-05-02T07:56:38.813Z,96691.14
2019-05-02T07:57:30.540Z,96681.53
2019-05-02T07:58:20.292Z,96685.94
2019-05-02T07:59:12.313Z,96686.59
2019-05-02T08:00:03.088Z,96689.80
2019-05-02T08:00:53.816Z,96688.69
2019-05-02T08:01:44.906Z,96684.81
2019-05-02T08:02:34.311Z,96682.93
2019-05-02T08:03:29.379Z,96689.30
2019-05-02T08:04:16.791Z,96685.41
2019-05-02T08:05:09.004Z,96690.40
2019-05-02T08:05:58.884Z,96695.20
2019-05-02T08:06:48.383Z,96702.36
2019-05-02T08:07:39.413Z,96691.57
2019-05-02T08:08:31.636Z,96694.19
2019-05-02T08:09:20.884Z,96692.27
2019-05-02T08:10:10.980Z,96693.11
2019-05-02T08:11:03.226Z,96695.91
2019-05-02T08:11:52.635Z,96694.78
2019-05-02T08:12:43.850Z,96691.25
2019-05-02T08:13:33.955Z,96687.98
2019-05-02T08:14:29.279Z,96695.91
2019-05-02T08:15:16.311Z,96697.94
2019-05-02T08:16:06.401Z,96692.23
2019-05-02T08:17:05.393Z,96694.05
2019-05-02T08:17:53.315Z,96695.47
2019-05-02T08:18:38.932Z,96694.92
2019-05-02T08:19:29.104Z,96695.34
2019-05-02T08:20:21.314Z,96696.77
2019-05-02T08:21:11.394Z,96699.56
2019-05-02T08:22:04.174Z,96691.30
2019-05-02T08:22:53.060Z,96692.14
2019-05-02T08:23:43.755Z,96699.27
2019-05-02T08:24:38.030Z,96698.31
2019-05-02T08:25:24.736Z,96694.20
2019-05-02T08:26:16.420Z,96697.97
2019-05-02T08:27:29.256Z,96702.16
2019-05-02T08:28:22.895Z,96693.30
2019-05-02T08:29:13.767Z,96695.52
2019-05-02T08:30:05.769Z,96699.33
2019-05-02T08:30:55.968Z,96696.98
2019-05-02T08:31:47.137Z,96705.90
2019-05-02T08:32:38.889Z,96697.41
2019-05-02T08:33:34.841Z,96701.84
2019-05-02T08:34:29.154Z,96695.94
2019-05-02T08:35:19.812Z,96702.30
2019-05-02T08:36:10.099Z,96689.10
2019-05-02T08:37:03.068Z,96702.75
2019-05-02T08:37:50.957Z,96698.63
2019-05-02T08:38:42.594Z,96696.07
2019-05-02T08:39:33.954Z,96703.02
2019-05-02T08:40:23.323Z,96695.34
2019-05-02T08:41:13.886Z,96700.11
2019-05-02T08:42:04.431Z,96693.59
2019-05-02T08:42:55.080Z,96693.43
2019-05-02T08:43:46.239Z,96697.60
2019-05-02T08:44:49.611Z,96697.45
2019-05-02T08:45:27.546Z,96700.02
2019-05-02T08:46:19.646Z,96701.83
2019-05-02T08:47:18.734Z,96701.27
2019-05-02T08:48:04.842Z,96701.29
2019-05-02T08:48:51.233Z,96695.56
2019-05-02T08:49:42.599Z,96700.94
2019-05-02T08:50:33.419Z,96704.90
2019-05-02T08:51:22.155Z,96688.70
2019-05-02T08:52:12.938Z,96691.28
2019-05-02T08:53:03.593Z,96692.10
2019-05-02T08:53:56.897Z,96689.17
2019-05-02T08:54:45.823Z,96688.17
2019-05-02T08:55:41.327Z,96683.27
2019-05-02T08:56:27.987Z,96695.54
2019-05-02T08:57:18.838Z,96690.02
2019-05-02T08:58:14.572Z,96696.19
2019-05-02T08:58:59.631Z,96700.73
2019-05-02T08:59:50.134Z,96696.20
2019-05-02T09:00:40.634Z,96695.25
2019-05-02T09:01:35.259Z,96687.91
2019-05-02T09:02:25.946Z,96689.12
2019-05-02T09:03:12.976Z,96696.07
2019-05-02T09:04:03.474Z,96684.61
2019-05-02T09:04:58.775Z,96688.36
2019-05-02T09:05:46.273Z,96679.91
2019-05-02T09:06:36.302Z,96683.66
2019-05-02T09:07:31.627Z,96685.09
2019-05-02T09:08:18.048Z,96686.48
2019-05-02T09:09:08.417Z,96686.50
2019-05-02T09:10:00.272Z,96680.75
2019-05-02T09:10:50.810Z,96683.73
2019-05-02T09:11:43.891Z,96675.84
2019-05-02T09:12:36.847Z,96680.39
2019-05-02T09:13:28.830Z,96682.78
2019-05-02T09:14:12.933Z,96685.17
2019-05-02T09:15:03.535Z,96677.24
2019-05-02T09:15:55.062Z,96683.00
2019-05-02T09:16:46.835Z,96683.41
2019-05-02T09:17:38.954Z,96689.56
2019-05-02T09:18:35.255Z,96689.98
2019-05-02T09:19:21.292Z,96686.41
2019-05-02T09:20:15.479Z,96685.83
2019-05-02T09:20:58.623Z,96682.85
2019-05-02T09:21:48.615Z,96681.67
2019-05-02T09:22:39.279Z,96679.11
2019-05-02T09:23:33.131Z,96683.07
2019-05-02T09:24:23.301Z,96683.48
2019-05-02T09:25:12.559Z,96682.48
2019-05-02T09:26:02.568Z,96676.77
2019-05-02T09:26:52.694Z,96677.16
2019-05-02T09:27:44.091Z,96672.82
2019-05-02T09:28:34.577Z,96686.70
2019-05-02T09:29:25.724Z,96672.63
2019-05-02T09:30:17.241Z,96675.22
2019-05-02T09:31:06.852Z,96678.00
2019-05-02T09:31:57.852Z,96672.87
2019-05-02T09:32:48.578Z,96676.83
2019-05-02T09:33:45.226Z,96669.89
2019-05-02T09:34:31.851Z,96674.47
2019-05-02T09:35:23.085Z,96680.61
2019-05-02T09:36:12.047Z,96681.82
2019-05-02T09:37:03.273Z,96662.78
2019-05-02T09:37:54.395Z,96666.17
2019-05-02T09:38:48.749Z,96664.97
2019-05-02T09:39:36.622Z,96673.91
2019-05-02T09:40:26.555Z,96669.95
2019-05-02T09:41:19.485Z,96664.02
2019-05-02T09:42:12.144Z,96673.34
2019-05-02T09:43:02.118Z,96669.56
2019-05-02T09:43:52.034Z,96666.41
2019-05-02T09:44:42.481Z,96666.02
2019-05-02T09:45:36.070Z,96663.84
2019-05-02T09:46:22.759Z,96664.05
2019-05-02T09:47:22.294Z,96674.94
2019-05-02T09:48:12.715Z,96664.84
2019-05-02T09:49:10.710Z,96650.74
2019-05-02T09:50:07.954Z,96671.98
2019-05-02T09:51:04.599Z,96666.22
2019-05-02T09:51:50.484Z,96668.81
2019-05-02T09:52:43.672Z,96660.86
2019-05-02T09:53:32.367Z,96664.26
2019-05-02T09:54:23.140Z,96662.45
2019-05-02T09:55:13.079Z,96663.07
2019-05-02T09:56:03.258Z,96656.71
2019-05-02T09:56:53.406Z,96660.49
2019-05-02T09:57:44.435Z,96657.50
2019-05-02T09:58:35.140Z,96652.56
2019-05-02T09:59:33.169Z,96662.87
2019-05-02T10:00:46.686Z,96670.39
2019-05-02T10:01:38.291Z,96663.86
2019-05-02T10:02:28.481Z,96659.09
2019-05-02T10:03:18.659Z,96662.66
2019-05-02T10:04:11.869Z,96664.25
2019-05-02T10:05:01.683Z,96662.64
2019-05-02T10:05:52.446Z,96659.86